sensor_id;sensor_type;location;lat;lon;timestamp;temperature;humidity
29413;DHT22;16389;50.126;8.450;2023-02-03T00:01:21;7.20;99.90
29413;DHT22;16389;50.126;8.450;2023-02-03T00:03:48;7.20;99.90
29413;DHT22;16389;50.126;8.450;2023-02-03T00:06:14;7.30;99.90
29413;DHT22;16389;50.126;8.450;2023-02-03T00:08:40;7.30;99.90
29413;DHT22;16389;50.126;8.450;2023-02-03T00:11:05;7.40;99.90
29413;DHT22;16389;50.126;8.450;2023-02-03T00:13:32;7.50;99.90
29413;DHT22;16389;50.126;8.450;2023-02-03T00:15:58;7.50;99.90
29413;DHT22;16389;50.126;8.450;2023-02-03T00:18:26;7.50;99.90
29413;DHT22;16389;50.126;8.450;2023-02-03T00:20:52;7.50;99.90
29413;DHT22;16389;50.126;8.450;2023-02-03T00:23:17;7.50;99.90
29413;DHT22;16389;50.126;8.450;2023-02-03T00:25:43;7.40;99.90
29413;DHT22;16389;50.126;8.450;2023-02-03T00:28:08;7.40;99.90
29413;DHT22;16389;50.126;8.450;2023-02-03T00:30:35;7.40;99.90
29413;DHT22;16389;50.126;8.450;2023-02-03T00:33:01;7.40;99.90
29413;DHT22;16389;50.126;8.450;2023-02-03T00:35:27;7.40;99.90
29413;DHT22;16389;50.126;8.450;2023-02-03T00:37:54;7.30;99.90
29413;DHT22;16389;50.126;8.450;2023-02-03T00:40:22;7.30;99.90
29413;DHT22;16389;50.126;8.450;2023-02-03T00:42:47;7.20;99.90
29413;DHT22;16389;50.126;8.450;2023-02-03T00:45:13;7.20;99.90
29413;DHT22;16389;50.126;8.450;2023-02-03T00:47:39;7.20;99.90
29413;DHT22;16389;50.126;8.450;2023-02-03T00:50:05;7.20;99.90
29413;DHT22;16389;50.126;8.450;2023-02-03T00:52:31;7.30;99.90
29413;DHT22;16389;50.126;8.450;2023-02-03T00:54:57;7.30;99.90
29413;DHT22;16389;50.126;8.450;2023-02-03T00:57:22;7.20;99.90
29413;DHT22;16389;50.126;8.450;2023-02-03T00:59:48;7.30;99.90
29413;DHT22;16389;50.126;8.450;2023-02-03T01:02:14;7.30;99.90
29413;DHT22;16389;50.126;8.450;2023-02-03T01:04:41;7.30;99.90
29413;DHT22;16389;50.126;8.450;2023-02-03T01:07:07;7.30;99.90
29413;DHT22;16389;50.126;8.450;2023-02-03T01:09:34;7.40;99.90
29413;DHT22;16389;50.126;8.450;2023-02-03T01:12:00;7.40;99.90
29413;DHT22;16389;50.126;8.450;2023-02-03T01:14:25;7.40;99.90
29413;DHT22;16389;50.126;8.450;2023-02-03T01:16:51;7.50;99.90
29413;DHT22;16389;50.126;8.450;2023-02-03T01:19:17;7.60;99.90
29413;DHT22;16389;50.126;8.450;2023-02-03T01:21:42;7.50;99.90
29413;DHT22;16389;50.126;8.450;2023-02-03T01:24:08;7.50;99.90
29413;DHT22;16389;50.126;8.450;2023-02-03T01:26:35;7.50;99.90
29413;DHT22;16389;50.126;8.450;2023-02-03T01:29:00;7.50;99.90
29413;DHT22;16389;50.126;8.450;2023-02-03T01:31:28;7.50;99.90
29413;DHT22;16389;50.126;8.450;2023-02-03T01:33:54;7.50;99.90
29413;DHT22;16389;50.126;8.450;2023-02-03T01:36:22;7.50;99.90
29413;DHT22;16389;50.126;8.450;2023-02-03T01:38:48;7.50;99.90
29413;DHT22;16389;50.126;8.450;2023-02-03T01:41:17;7.50;99.90
29413;DHT22;16389;50.126;8.450;2023-02-03T01:43:46;7.50;99.90
29413;DHT22;16389;50.126;8.450;2023-02-03T01:48:43;7.60;99.90
29413;DHT22;16389;50.126;8.450;2023-02-03T01:51:09;7.50;99.90
29413;DHT22;16389;50.126;8.450;2023-02-03T01:53:35;7.50;99.90
29413;DHT22;16389;50.126;8.450;2023-02-03T01:56:02;7.50;99.90
29413;DHT22;16389;50.126;8.450;2023-02-03T01:58:32;7.50;99.90
29413;DHT22;16389;50.126;8.450;2023-02-03T02:01:00;7.50;99.90
29413;DHT22;16389;50.126;8.450;2023-02-03T02:03:32;7.50;99.90
29413;DHT22;16389;50.126;8.450;2023-02-03T02:06:04;7.40;99.90
29413;DHT22;16389;50.126;8.450;2023-02-03T02:08:30;7.40;99.90
29413;DHT22;16389;50.126;8.450;2023-02-03T02:10:57;7.40;99.90
29413;DHT22;16389;50.126;8.450;2023-02-03T02:13:24;7.40;99.90
29413;DHT22;16389;50.126;8.450;2023-02-03T02:16:21;7.40;99.90
29413;DHT22;16389;50.126;8.450;2023-02-03T02:30:15;7.40;99.90
29413;DHT22;16389;50.126;8.450;2023-02-03T02:36:00;7.40;99.90
29413;DHT22;16389;50.126;8.450;2023-02-03T02:41:22;7.40;99.90
29413;DHT22;16389;50.126;8.450;2023-02-03T02:43:57;7.40;99.90
29413;DHT22;16389;50.126;8.450;2023-02-03T02:46:37;7.40;99.90
29413;DHT22;16389;50.126;8.450;2023-02-03T02:49:28;7.40;99.90
29413;DHT22;16389;50.126;8.450;2023-02-03T02:51:56;7.40;99.90
29413;DHT22;16389;50.126;8.450;2023-02-03T02:54:25;7.40;99.90
29413;DHT22;16389;50.126;8.450;2023-02-03T02:56:54;7.40;99.90
29413;DHT22;16389;50.126;8.450;2023-02-03T02:59:20;7.40;99.90
29413;DHT22;16389;50.126;8.450;2023-02-03T03:01:46;7.40;99.90
29413;DHT22;16389;50.126;8.450;2023-02-03T03:04:14;7.40;99.90
29413;DHT22;16389;50.126;8.450;2023-02-03T03:06:45;7.30;99.90
29413;DHT22;16389;50.126;8.450;2023-02-03T03:09:15;7.40;99.90
29413;DHT22;16389;50.126;8.450;2023-02-03T03:11:48;7.30;99.90
29413;DHT22;16389;50.126;8.450;2023-02-03T03:14:17;7.20;99.90
29413;DHT22;16389;50.126;8.450;2023-02-03T03:16:49;7.30;99.90
29413;DHT22;16389;50.126;8.450;2023-02-03T03:19:20;7.20;99.90
29413;DHT22;16389;50.126;8.450;2023-02-03T03:21:49;7.20;99.90
29413;DHT22;16389;50.126;8.450;2023-02-03T03:24:23;7.20;99.90
29413;DHT22;16389;50.126;8.450;2023-02-03T03:29:44;7.20;99.90
29413;DHT22;16389;50.126;8.450;2023-02-03T03:32:13;7.20;99.90
29413;DHT22;16389;50.126;8.450;2023-02-03T03:34:39;7.20;99.90
29413;DHT22;16389;50.126;8.450;2023-02-03T03:37:17;7.20;99.90
29413;DHT22;16389;50.126;8.450;2023-02-03T03:40:17;7.20;99.90
29413;DHT22;16389;50.126;8.450;2023-02-03T03:42:49;7.10;99.90
29413;DHT22;16389;50.126;8.450;2023-02-03T03:45:31;7.10;99.90
29413;DHT22;16389;50.126;8.450;2023-02-03T03:48:11;7.10;99.90
29413;DHT22;16389;50.126;8.450;2023-02-03T03:50:44;7.10;99.90
29413;DHT22;16389;50.126;8.450;2023-02-03T03:53:12;7.20;99.90
29413;DHT22;16389;50.126;8.450;2023-02-03T03:55:40;7.20;99.90
29413;DHT22;16389;50.126;8.450;2023-02-03T03:58:10;7.20;99.90
29413;DHT22;16389;50.126;8.450;2023-02-03T04:00:38;7.20;99.90
29413;DHT22;16389;50.126;8.450;2023-02-03T04:03:10;7.20;99.90
29413;DHT22;16389;50.126;8.450;2023-02-03T04:05:38;7.20;99.90
29413;DHT22;16389;50.126;8.450;2023-02-03T04:08:04;7.20;99.90
29413;DHT22;16389;50.126;8.450;2023-02-03T04:10:31;7.20;99.90
29413;DHT22;16389;50.126;8.450;2023-02-03T04:12:58;7.20;99.90
29413;DHT22;16389;50.126;8.450;2023-02-03T04:15:23;7.20;99.90
29413;DHT22;16389;50.126;8.450;2023-02-03T04:17:49;7.20;99.90
29413;DHT22;16389;50.126;8.450;2023-02-03T04:20:15;7.30;99.90
29413;DHT22;16389;50.126;8.450;2023-02-03T04:22:41;7.20;99.90
29413;DHT22;16389;50.126;8.450;2023-02-03T04:25:08;7.30;99.90
29413;DHT22;16389;50.126;8.450;2023-02-03T04:27:35;7.30;99.90
29413;DHT22;16389;50.126;8.450;2023-02-03T04:30:00;7.30;99.90
29413;DHT22;16389;50.126;8.450;2023-02-03T04:32:26;7.30;99.90
29413;DHT22;16389;50.126;8.450;2023-02-03T04:34:52;7.30;99.90
29413;DHT22;16389;50.126;8.450;2023-02-03T04:37:17;7.20;99.90
29413;DHT22;16389;50.126;8.450;2023-02-03T04:39:43;7.30;99.90
29413;DHT22;16389;50.126;8.450;2023-02-03T04:42:09;7.20;99.90
29413;DHT22;16389;50.126;8.450;2023-02-03T04:44:34;7.20;99.90
29413;DHT22;16389;50.126;8.450;2023-02-03T04:47:00;7.20;99.90
29413;DHT22;16389;50.126;8.450;2023-02-03T04:49:25;7.10;99.90
29413;DHT22;16389;50.126;8.450;2023-02-03T04:51:51;7.20;99.90
29413;DHT22;16389;50.126;8.450;2023-02-03T04:54:18;7.20;99.90
29413;DHT22;16389;50.126;8.450;2023-02-03T04:56:43;7.20;99.90
29413;DHT22;16389;50.126;8.450;2023-02-03T04:59:09;7.10;99.90
29413;DHT22;16389;50.126;8.450;2023-02-03T05:01:34;7.00;99.90
29413;DHT22;16389;50.126;8.450;2023-02-03T05:04:00;7.10;99.90
29413;DHT22;16389;50.126;8.450;2023-02-03T05:06:27;7.10;99.90
29413;DHT22;16389;50.126;8.450;2023-02-03T05:08:54;7.00;99.90
29413;DHT22;16389;50.126;8.450;2023-02-03T05:11:21;7.00;99.90
29413;DHT22;16389;50.126;8.450;2023-02-03T05:13:46;7.00;99.90
29413;DHT22;16389;50.126;8.450;2023-02-03T05:16:12;7.00;99.90
29413;DHT22;16389;50.126;8.450;2023-02-03T05:18:38;7.00;99.90
29413;DHT22;16389;50.126;8.450;2023-02-03T05:21:05;7.00;99.90
29413;DHT22;16389;50.126;8.450;2023-02-03T05:23:31;7.00;99.90
29413;DHT22;16389;50.126;8.450;2023-02-03T05:25:56;7.00;99.90
29413;DHT22;16389;50.126;8.450;2023-02-03T05:28:22;7.00;99.90
29413;DHT22;16389;50.126;8.450;2023-02-03T05:30:47;7.10;99.90
29413;DHT22;16389;50.126;8.450;2023-02-03T05:33:13;7.10;99.90
29413;DHT22;16389;50.126;8.450;2023-02-03T05:35:38;7.00;99.90
29413;DHT22;16389;50.126;8.450;2023-02-03T05:38:04;7.00;99.90
29413;DHT22;16389;50.126;8.450;2023-02-03T05:40:30;7.00;99.90
29413;DHT22;16389;50.126;8.450;2023-02-03T05:43:14;7.00;99.90
29413;DHT22;16389;50.126;8.450;2023-02-03T05:45:40;7.00;99.90
29413;DHT22;16389;50.126;8.450;2023-02-03T05:48:06;7.10;99.90
29413;DHT22;16389;50.126;8.450;2023-02-03T05:50:32;7.00;99.90
29413;DHT22;16389;50.126;8.450;2023-02-03T05:52:59;7.00;99.90
29413;DHT22;16389;50.126;8.450;2023-02-03T05:55:26;7.00;99.90
29413;DHT22;16389;50.126;8.450;2023-02-03T05:57:52;7.00;99.90
29413;DHT22;16389;50.126;8.450;2023-02-03T06:00:18;7.10;99.90
29413;DHT22;16389;50.126;8.450;2023-02-03T06:02:53;7.10;99.90
29413;DHT22;16389;50.126;8.450;2023-02-03T06:05:19;7.10;99.90
29413;DHT22;16389;50.126;8.450;2023-02-03T06:07:45;7.20;99.90
29413;DHT22;16389;50.126;8.450;2023-02-03T06:10:11;7.20;99.90
29413;DHT22;16389;50.126;8.450;2023-02-03T06:12:37;7.20;99.90
29413;DHT22;16389;50.126;8.450;2023-02-03T06:15:03;7.20;99.90
29413;DHT22;16389;50.126;8.450;2023-02-03T06:17:29;7.20;99.90
29413;DHT22;16389;50.126;8.450;2023-02-03T06:19:55;7.30;99.90
29413;DHT22;16389;50.126;8.450;2023-02-03T06:22:20;7.30;99.90
29413;DHT22;16389;50.126;8.450;2023-02-03T06:24:46;7.20;99.90
29413;DHT22;16389;50.126;8.450;2023-02-03T06:27:13;7.30;99.90
29413;DHT22;16389;50.126;8.450;2023-02-03T06:29:39;7.30;99.90
29413;DHT22;16389;50.126;8.450;2023-02-03T06:32:05;7.30;99.90
29413;DHT22;16389;50.126;8.450;2023-02-03T06:34:31;7.30;99.90
29413;DHT22;16389;50.126;8.450;2023-02-03T06:36:57;7.30;99.90
29413;DHT22;16389;50.126;8.450;2023-02-03T06:39:23;7.30;99.90
29413;DHT22;16389;50.126;8.450;2023-02-03T06:41:49;7.30;99.90
29413;DHT22;16389;50.126;8.450;2023-02-03T06:44:16;7.30;99.90
29413;DHT22;16389;50.126;8.450;2023-02-03T06:46:42;7.30;99.90
29413;DHT22;16389;50.126;8.450;2023-02-03T06:49:08;7.30;99.90
29413;DHT22;16389;50.126;8.450;2023-02-03T06:51:33;7.30;99.90
29413;DHT22;16389;50.126;8.450;2023-02-03T06:53:59;7.30;99.90
29413;DHT22;16389;50.126;8.450;2023-02-03T06:56:25;7.30;99.90
29413;DHT22;16389;50.126;8.450;2023-02-03T06:58:50;7.40;99.90
29413;DHT22;16389;50.126;8.450;2023-02-03T07:01:16;7.40;99.90
29413;DHT22;16389;50.126;8.450;2023-02-03T07:03:42;7.40;99.90
29413;DHT22;16389;50.126;8.450;2023-02-03T07:06:07;7.40;99.90
29413;DHT22;16389;50.126;8.450;2023-02-03T07:08:33;7.40;99.90
29413;DHT22;16389;50.126;8.450;2023-02-03T07:10:58;7.40;99.90
29413;DHT22;16389;50.126;8.450;2023-02-03T07:13:24;7.40;99.90
29413;DHT22;16389;50.126;8.450;2023-02-03T07:15:50;7.40;99.90
29413;DHT22;16389;50.126;8.450;2023-02-03T07:18:15;7.40;99.90
29413;DHT22;16389;50.126;8.450;2023-02-03T07:20:42;7.40;99.90
29413;DHT22;16389;50.126;8.450;2023-02-03T07:23:08;7.50;99.90
29413;DHT22;16389;50.126;8.450;2023-02-03T07:25:33;7.50;99.90
29413;DHT22;16389;50.126;8.450;2023-02-03T07:27:59;7.40;99.90
29413;DHT22;16389;50.126;8.450;2023-02-03T07:30:25;7.50;99.90
29413;DHT22;16389;50.126;8.450;2023-02-03T07:32:52;7.60;99.90
29413;DHT22;16389;50.126;8.450;2023-02-03T07:35:18;7.50;99.90
29413;DHT22;16389;50.126;8.450;2023-02-03T07:37:44;7.60;99.90
29413;DHT22;16389;50.126;8.450;2023-02-03T07:40:11;7.60;99.90
29413;DHT22;16389;50.126;8.450;2023-02-03T07:42:45;7.70;99.90
29413;DHT22;16389;50.126;8.450;2023-02-03T07:45:12;7.70;99.90
29413;DHT22;16389;50.126;8.450;2023-02-03T07:47:38;7.60;99.90
29413;DHT22;16389;50.126;8.450;2023-02-03T07:50:04;7.70;99.90
29413;DHT22;16389;50.126;8.450;2023-02-03T07:52:30;7.70;99.90
29413;DHT22;16389;50.126;8.450;2023-02-03T07:54:55;7.70;99.90
29413;DHT22;16389;50.126;8.450;2023-02-03T07:57:21;7.70;99.90
29413;DHT22;16389;50.126;8.450;2023-02-03T07:59:47;7.70;99.90
29413;DHT22;16389;50.126;8.450;2023-02-03T08:02:12;7.70;99.90
29413;DHT22;16389;50.126;8.450;2023-02-03T08:04:38;7.80;99.90
29413;DHT22;16389;50.126;8.450;2023-02-03T08:07:04;7.80;99.90
29413;DHT22;16389;50.126;8.450;2023-02-03T08:09:29;7.80;99.90
29413;DHT22;16389;50.126;8.450;2023-02-03T08:11:55;7.80;99.90
29413;DHT22;16389;50.126;8.450;2023-02-03T08:14:20;7.80;99.90
29413;DHT22;16389;50.126;8.450;2023-02-03T08:16:46;7.80;99.90
29413;DHT22;16389;50.126;8.450;2023-02-03T08:19:12;7.80;99.90
29413;DHT22;16389;50.126;8.450;2023-02-03T08:21:37;7.80;99.90
29413;DHT22;16389;50.126;8.450;2023-02-03T08:24:03;7.80;99.90
29413;DHT22;16389;50.126;8.450;2023-02-03T08:26:29;7.80;99.90
29413;DHT22;16389;50.126;8.450;2023-02-03T08:28:55;7.90;99.90
29413;DHT22;16389;50.126;8.450;2023-02-03T08:31:21;8.00;99.90
29413;DHT22;16389;50.126;8.450;2023-02-03T08:33:46;8.00;99.90
29413;DHT22;16389;50.126;8.450;2023-02-03T08:36:12;8.00;99.90
29413;DHT22;16389;50.126;8.450;2023-02-03T08:38:38;8.10;99.90
29413;DHT22;16389;50.126;8.450;2023-02-03T08:41:12;8.20;99.90
29413;DHT22;16389;50.126;8.450;2023-02-03T08:43:38;8.30;99.90
29413;DHT22;16389;50.126;8.450;2023-02-03T08:46:06;8.30;99.90
29413;DHT22;16389;50.126;8.450;2023-02-03T08:48:32;8.30;99.90
29413;DHT22;16389;50.126;8.450;2023-02-03T08:50:58;8.30;99.90
29413;DHT22;16389;50.126;8.450;2023-02-03T08:53:24;8.30;99.90
29413;DHT22;16389;50.126;8.450;2023-02-03T08:55:50;8.20;99.90
29413;DHT22;16389;50.126;8.450;2023-02-03T08:58:15;8.30;99.90
29413;DHT22;16389;50.126;8.450;2023-02-03T09:00:41;8.30;99.90
29413;DHT22;16389;50.126;8.450;2023-02-03T09:03:07;8.40;99.90
29413;DHT22;16389;50.126;8.450;2023-02-03T09:05:33;8.30;99.90
29413;DHT22;16389;50.126;8.450;2023-02-03T09:07:59;8.40;99.90
29413;DHT22;16389;50.126;8.450;2023-02-03T09:10:24;8.40;99.90
29413;DHT22;16389;50.126;8.450;2023-02-03T09:12:50;8.40;99.90
29413;DHT22;16389;50.126;8.450;2023-02-03T09:15:16;8.40;99.90
29413;DHT22;16389;50.126;8.450;2023-02-03T09:17:41;8.40;99.90
29413;DHT22;16389;50.126;8.450;2023-02-03T09:20:07;8.40;99.90
29413;DHT22;16389;50.126;8.450;2023-02-03T09:22:33;8.50;99.90
29413;DHT22;16389;50.126;8.450;2023-02-03T09:24:59;8.50;99.90
29413;DHT22;16389;50.126;8.450;2023-02-03T09:27:25;8.50;99.90
29413;DHT22;16389;50.126;8.450;2023-02-03T09:29:50;8.50;99.90
29413;DHT22;16389;50.126;8.450;2023-02-03T09:32:16;8.50;99.90
29413;DHT22;16389;50.126;8.450;2023-02-03T09:34:42;8.60;99.90
29413;DHT22;16389;50.126;8.450;2023-02-03T09:37:07;8.50;99.90
29413;DHT22;16389;50.126;8.450;2023-02-03T09:39:33;8.50;99.90
29413;DHT22;16389;50.126;8.450;2023-02-03T09:42:16;8.60;99.90
29413;DHT22;16389;50.126;8.450;2023-02-03T09:44:49;8.70;99.90
29413;DHT22;16389;50.126;8.450;2023-02-03T09:47:21;8.80;99.90
29413;DHT22;16389;50.126;8.450;2023-02-03T09:49:54;8.80;99.90
29413;DHT22;16389;50.126;8.450;2023-02-03T09:52:33;8.80;99.90
29413;DHT22;16389;50.126;8.450;2023-02-03T10:00:43;8.90;99.90
29413;DHT22;16389;50.126;8.450;2023-02-03T10:11:55;9.10;99.90
29413;DHT22;16389;50.126;8.450;2023-02-03T10:19:54;9.00;99.90
29413;DHT22;16389;50.126;8.450;2023-02-03T10:22:24;9.10;99.90
29413;DHT22;16389;50.126;8.450;2023-02-03T10:25:00;9.00;99.90
29413;DHT22;16389;50.126;8.450;2023-02-03T10:27:28;9.00;99.90
29413;DHT22;16389;50.126;8.450;2023-02-03T10:30:06;9.10;99.90
29413;DHT22;16389;50.126;8.450;2023-02-03T10:32:35;9.20;99.90
29413;DHT22;16389;50.126;8.450;2023-02-03T10:35:04;9.20;99.90
29413;DHT22;16389;50.126;8.450;2023-02-03T10:37:33;9.20;99.90
29413;DHT22;16389;50.126;8.450;2023-02-03T10:40:02;9.20;99.90
29413;DHT22;16389;50.126;8.450;2023-02-03T10:42:29;9.20;99.90
29413;DHT22;16389;50.126;8.450;2023-02-03T10:45:14;9.20;99.90
29413;DHT22;16389;50.126;8.450;2023-02-03T10:47:47;9.20;99.90
29413;DHT22;16389;50.126;8.450;2023-02-03T10:50:20;9.20;99.90
29413;DHT22;16389;50.126;8.450;2023-02-03T10:52:46;9.20;99.90
29413;DHT22;16389;50.126;8.450;2023-02-03T10:57:49;9.30;99.90
29413;DHT22;16389;50.126;8.450;2023-02-03T11:00:22;9.40;99.90
29413;DHT22;16389;50.126;8.450;2023-02-03T11:05:46;9.40;99.90
29413;DHT22;16389;50.126;8.450;2023-02-03T11:08:15;9.40;99.90
29413;DHT22;16389;50.126;8.450;2023-02-03T11:10:41;9.40;99.90
29413;DHT22;16389;50.126;8.450;2023-02-03T11:13:19;9.40;99.90
29413;DHT22;16389;50.126;8.450;2023-02-03T11:15:54;9.50;99.90
29413;DHT22;16389;50.126;8.450;2023-02-03T11:21:12;9.60;99.90
29413;DHT22;16389;50.126;8.450;2023-02-03T11:29:26;9.60;99.90
29413;DHT22;16389;50.126;8.450;2023-02-03T11:31:58;9.50;99.90
29413;DHT22;16389;50.126;8.450;2023-02-03T11:34:35;9.50;99.90
29413;DHT22;16389;50.126;8.450;2023-02-03T11:39:48;9.50;99.90
29413;DHT22;16389;50.126;8.450;2023-02-03T11:42:21;9.50;99.90
29413;DHT22;16389;50.126;8.450;2023-02-03T11:44:47;9.60;99.90
29413;DHT22;16389;50.126;8.450;2023-02-03T11:47:14;9.60;99.90
29413;DHT22;16389;50.126;8.450;2023-02-03T11:49:53;9.60;99.90
29413;DHT22;16389;50.126;8.450;2023-02-03T11:52:36;9.70;99.90
29413;DHT22;16389;50.126;8.450;2023-02-03T11:56:27;9.60;99.90
29413;DHT22;16389;50.126;8.450;2023-02-03T12:01:43;9.50;99.90
29413;DHT22;16389;50.126;8.450;2023-02-03T12:04:34;9.50;99.90
29413;DHT22;16389;50.126;8.450;2023-02-03T12:07:20;9.40;99.90
29413;DHT22;16389;50.126;8.450;2023-02-03T12:10:11;9.30;99.90
29413;DHT22;16389;50.126;8.450;2023-02-03T12:21:29;9.10;99.90
29413;DHT22;16389;50.126;8.450;2023-02-03T12:24:23;9.00;99.90
29413;DHT22;16389;50.126;8.450;2023-02-03T12:27:19;9.00;99.90
29413;DHT22;16389;50.126;8.450;2023-02-03T12:30:02;9.00;99.90
29413;DHT22;16389;50.126;8.450;2023-02-03T12:33:14;9.10;99.90
29413;DHT22;16389;50.126;8.450;2023-02-03T12:36:07;9.10;99.90
29413;DHT22;16389;50.126;8.450;2023-02-03T12:38:43;9.00;99.90
29413;DHT22;16389;50.126;8.450;2023-02-03T12:41:20;8.90;99.90
29413;DHT22;16389;50.126;8.450;2023-02-03T12:43:51;8.90;99.90
29413;DHT22;16389;50.126;8.450;2023-02-03T12:51:48;8.80;99.90
29413;DHT22;16389;50.126;8.450;2023-02-03T12:54:33;8.70;99.90
29413;DHT22;16389;50.126;8.450;2023-02-03T13:00:28;8.70;99.90
29413;DHT22;16389;50.126;8.450;2023-02-03T13:03:11;8.70;99.90
29413;DHT22;16389;50.126;8.450;2023-02-03T13:06:03;8.70;99.90
29413;DHT22;16389;50.126;8.450;2023-02-03T13:08:35;8.70;99.90
29413;DHT22;16389;50.126;8.450;2023-02-03T13:11:28;8.70;99.90
29413;DHT22;16389;50.126;8.450;2023-02-03T13:14:08;8.70;99.90
29413;DHT22;16389;50.126;8.450;2023-02-03T13:16:38;8.70;99.90
29413;DHT22;16389;50.126;8.450;2023-02-03T13:19:06;8.70;99.90
29413;DHT22;16389;50.126;8.450;2023-02-03T13:21:32;8.70;99.90
29413;DHT22;16389;50.126;8.450;2023-02-03T13:23:58;8.70;99.90
29413;DHT22;16389;50.126;8.450;2023-02-03T13:29:15;8.70;99.90
29413;DHT22;16389;50.126;8.450;2023-02-03T13:40:16;8.80;99.90
29413;DHT22;16389;50.126;8.450;2023-02-03T13:42:51;8.80;99.90
29413;DHT22;16389;50.126;8.450;2023-02-03T13:48:27;8.90;99.90
29413;DHT22;16389;50.126;8.450;2023-02-03T13:53:36;8.80;99.90
29413;DHT22;16389;50.126;8.450;2023-02-03T13:56:20;8.80;99.90
29413;DHT22;16389;50.126;8.450;2023-02-03T14:01:41;8.80;99.90
29413;DHT22;16389;50.126;8.450;2023-02-03T14:09:34;8.70;99.90
29413;DHT22;16389;50.126;8.450;2023-02-03T14:14:42;8.80;99.90
29413;DHT22;16389;50.126;8.450;2023-02-03T14:19:59;8.70;99.90
29413;DHT22;16389;50.126;8.450;2023-02-03T14:22:25;8.70;99.90
29413;DHT22;16389;50.126;8.450;2023-02-03T14:24:53;8.70;99.90
29413;DHT22;16389;50.126;8.450;2023-02-03T14:27:25;8.60;99.90
29413;DHT22;16389;50.126;8.450;2023-02-03T14:30:13;8.60;99.90
29413;DHT22;16389;50.126;8.450;2023-02-03T14:32:55;8.60;99.90
29413;DHT22;16389;50.126;8.450;2023-02-03T14:35:34;8.60;99.90
29413;DHT22;16389;50.126;8.450;2023-02-03T14:38:03;8.70;99.90
29413;DHT22;16389;50.126;8.450;2023-02-03T14:43:24;8.70;99.90
29413;DHT22;16389;50.126;8.450;2023-02-03T14:48:55;8.70;99.90
29413;DHT22;16389;50.126;8.450;2023-02-03T14:51:31;8.70;99.90
29413;DHT22;16389;50.126;8.450;2023-02-03T14:54:11;8.80;99.90
29413;DHT22;16389;50.126;8.450;2023-02-03T14:57:13;8.80;99.90
29413;DHT22;16389;50.126;8.450;2023-02-03T14:59:49;8.80;99.90
29413;DHT22;16389;50.126;8.450;2023-02-03T15:02:29;8.80;99.90
29413;DHT22;16389;50.126;8.450;2023-02-03T15:07:39;8.90;99.90
29413;DHT22;16389;50.126;8.450;2023-02-03T15:10:40;9.00;99.90
29413;DHT22;16389;50.126;8.450;2023-02-03T15:13:29;9.00;99.90
29413;DHT22;16389;50.126;8.450;2023-02-03T15:15:57;9.00;99.90
29413;DHT22;16389;50.126;8.450;2023-02-03T15:18:36;9.00;99.90
29413;DHT22;16389;50.126;8.450;2023-02-03T15:21:02;9.00;99.90
29413;DHT22;16389;50.126;8.450;2023-02-03T15:23:35;9.00;99.90
29413;DHT22;16389;50.126;8.450;2023-02-03T15:26:13;9.00;99.90
29413;DHT22;16389;50.126;8.450;2023-02-03T15:28:39;8.90;99.90
29413;DHT22;16389;50.126;8.450;2023-02-03T15:31:26;9.00;99.90
29413;DHT22;16389;50.126;8.450;2023-02-03T15:33:54;8.90;99.90
29413;DHT22;16389;50.126;8.450;2023-02-03T15:36:44;9.00;99.90
29413;DHT22;16389;50.126;8.450;2023-02-03T15:39:21;9.00;99.90
29413;DHT22;16389;50.126;8.450;2023-02-03T15:41:53;9.10;99.90
29413;DHT22;16389;50.126;8.450;2023-02-03T15:44:29;9.00;99.90
29413;DHT22;16389;50.126;8.450;2023-02-03T15:46:58;9.10;99.90
29413;DHT22;16389;50.126;8.450;2023-02-03T15:49:35;9.10;99.90
29413;DHT22;16389;50.126;8.450;2023-02-03T15:52:16;9.10;99.90
29413;DHT22;16389;50.126;8.450;2023-02-03T15:54:46;9.20;99.90
29413;DHT22;16389;50.126;8.450;2023-02-03T15:57:26;9.20;99.90
29413;DHT22;16389;50.126;8.450;2023-02-03T15:59:59;9.20;99.90
29413;DHT22;16389;50.126;8.450;2023-02-03T16:02:30;9.20;99.90
29413;DHT22;16389;50.126;8.450;2023-02-03T16:05:12;9.20;99.90
29413;DHT22;16389;50.126;8.450;2023-02-03T16:07:43;9.20;99.90
29413;DHT22;16389;50.126;8.450;2023-02-03T16:10:28;9.20;99.90
29413;DHT22;16389;50.126;8.450;2023-02-03T16:13:22;9.20;99.90
29413;DHT22;16389;50.126;8.450;2023-02-03T16:16:04;9.20;99.90
29413;DHT22;16389;50.126;8.450;2023-02-03T16:18:33;9.10;99.90
29413;DHT22;16389;50.126;8.450;2023-02-03T16:21:04;9.10;99.90
29413;DHT22;16389;50.126;8.450;2023-02-03T16:23:30;9.00;99.90
29413;DHT22;16389;50.126;8.450;2023-02-03T16:28:38;9.00;99.90
29413;DHT22;16389;50.126;8.450;2023-02-03T16:31:22;8.90;99.90
29413;DHT22;16389;50.126;8.450;2023-02-03T16:34:17;8.90;99.90
29413;DHT22;16389;50.126;8.450;2023-02-03T16:37:32;8.90;99.90
29413;DHT22;16389;50.126;8.450;2023-02-03T16:40:22;8.90;99.90
29413;DHT22;16389;50.126;8.450;2023-02-03T16:43:12;8.90;99.90
29413;DHT22;16389;50.126;8.450;2023-02-03T16:45:57;8.90;99.90
29413;DHT22;16389;50.126;8.450;2023-02-03T16:48:41;9.00;99.90
29413;DHT22;16389;50.126;8.450;2023-02-03T16:51:37;9.00;99.90
29413;DHT22;16389;50.126;8.450;2023-02-03T16:54:03;9.00;99.90
29413;DHT22;16389;50.126;8.450;2023-02-03T16:56:30;9.00;99.90
29413;DHT22;16389;50.126;8.450;2023-02-03T16:58:55;9.10;99.90
29413;DHT22;16389;50.126;8.450;2023-02-03T17:01:21;9.00;99.90
29413;DHT22;16389;50.126;8.450;2023-02-03T17:03:47;9.00;99.90
29413;DHT22;16389;50.126;8.450;2023-02-03T17:06:12;9.00;99.90
29413;DHT22;16389;50.126;8.450;2023-02-03T17:08:40;9.10;99.90
29413;DHT22;16389;50.126;8.450;2023-02-03T17:11:09;9.00;99.90
29413;DHT22;16389;50.126;8.450;2023-02-03T17:13:35;9.00;99.90
29413;DHT22;16389;50.126;8.450;2023-02-03T17:16:07;9.10;99.90
29413;DHT22;16389;50.126;8.450;2023-02-03T17:18:33;9.00;99.90
29413;DHT22;16389;50.126;8.450;2023-02-03T17:21:06;9.00;99.90
29413;DHT22;16389;50.126;8.450;2023-02-03T17:23:32;9.10;99.90
29413;DHT22;16389;50.126;8.450;2023-02-03T17:25:58;9.10;99.90
29413;DHT22;16389;50.126;8.450;2023-02-03T17:28:24;9.10;99.90
29413;DHT22;16389;50.126;8.450;2023-02-03T17:30:58;9.10;99.90
29413;DHT22;16389;50.126;8.450;2023-02-03T17:33:24;9.00;99.90
29413;DHT22;16389;50.126;8.450;2023-02-03T17:36:00;9.00;99.90
29413;DHT22;16389;50.126;8.450;2023-02-03T17:38:25;9.00;99.90
29413;DHT22;16389;50.126;8.450;2023-02-03T17:40:51;8.90;99.90
29413;DHT22;16389;50.126;8.450;2023-02-03T17:43:17;8.90;99.90
29413;DHT22;16389;50.126;8.450;2023-02-03T17:45:43;8.90;99.90
29413;DHT22;16389;50.126;8.450;2023-02-03T17:48:09;8.90;99.90
29413;DHT22;16389;50.126;8.450;2023-02-03T17:50:36;8.90;99.90
29413;DHT22;16389;50.126;8.450;2023-02-03T17:53:02;8.90;99.90
29413;DHT22;16389;50.126;8.450;2023-02-03T17:55:29;8.80;99.90
29413;DHT22;16389;50.126;8.450;2023-02-03T17:57:54;8.80;99.90
29413;DHT22;16389;50.126;8.450;2023-02-03T18:00:20;8.70;99.90
29413;DHT22;16389;50.126;8.450;2023-02-03T18:02:50;8.70;99.90
29413;DHT22;16389;50.126;8.450;2023-02-03T18:05:16;8.60;99.90
29413;DHT22;16389;50.126;8.450;2023-02-03T18:07:43;8.60;99.90